createdAt,value
2018-09-26T00:01:57.417Z,7.70
2018-09-26T00:06:59.996Z,7.40
2018-09-26T00:12:02.523Z,7.40
2018-09-26T00:17:05.184Z,7.30
2018-09-26T00:22:07.735Z,7.20
2018-09-26T00:27:10.280Z,7.30
2018-09-26T00:32:12.832Z,7.30
2018-09-26T00:37:15.339Z,6.90
2018-09-26T00:42:17.884Z,7.00
2018-09-26T00:47:20.472Z,7.10
2018-09-26T00:52:23.027Z,7.10
2018-09-26T00:57:25.536Z,7.40
2018-09-26T01:02:28.047Z,7.70
2018-09-26T01:07:30.555Z,7.60
2018-09-26T01:12:33.151Z,7.60
2018-09-26T01:17:35.660Z,7.20
2018-09-26T01:22:38.228Z,7.00
2018-09-26T01:27:40.755Z,7.10
2018-09-26T01:32:43.335Z,7.20
2018-09-26T01:37:45.855Z,7.30
2018-09-26T01:42:48.425Z,7.40
2018-09-26T01:47:50.951Z,7.40
2018-09-26T01:52:53.453Z,7.60
2018-09-26T01:57:56.020Z,7.60
2018-09-26T02:02:58.562Z,7.40
2018-09-26T02:08:01.080Z,7.30
2018-09-26T02:13:03.604Z,7.30
2018-09-26T02:18:06.135Z,7.30
2018-09-26T02:23:08.662Z,7.20
2018-09-26T02:28:11.167Z,7.40
2018-09-26T02:33:15.076Z,7.30
2018-09-26T02:38:17.873Z,7.00
2018-09-26T02:43:20.481Z,6.80
2018-09-26T02:48:28.692Z,6.70
2018-09-26T02:53:31.227Z,7.00
2018-09-26T02:58:33.759Z,6.80
2018-09-26T03:03:36.335Z,6.70
2018-09-26T03:08:38.933Z,6.70
2018-09-26T03:13:41.470Z,6.90
2018-09-26T03:18:43.976Z,6.80
2018-09-26T03:23:46.513Z,6.80
2018-09-26T03:28:49.095Z,6.70
2018-09-26T03:33:51.645Z,6.80
2018-09-26T03:38:54.139Z,6.90
2018-09-26T03:43:56.664Z,6.60
2018-09-26T03:48:59.213Z,6.40
2018-09-26T03:54:01.735Z,6.40
2018-09-26T03:59:04.304Z,6.40
2018-09-26T04:04:06.909Z,6.40
2018-09-26T04:09:09.480Z,6.60
2018-09-26T04:14:12.074Z,6.60
2018-09-26T04:19:14.614Z,6.80
2018-09-26T04:24:17.116Z,7.00
2018-09-26T04:29:19.637Z,7.00
2018-09-26T04:34:22.167Z,7.10
2018-09-26T04:39:24.698Z,7.10
2018-09-26T04:44:27.229Z,7.30
2018-09-26T04:49:29.759Z,6.80
2018-09-26T04:54:32.274Z,6.40
2018-09-26T04:59:34.815Z,5.90
2018-09-26T05:04:37.823Z,5.50
2018-09-26T05:09:40.473Z,5.30
2018-09-26T05:14:43.096Z,5.00
2018-09-26T05:19:45.596Z,4.70
2018-09-26T05:24:48.126Z,4.40
2018-09-26T05:29:50.670Z,4.30
2018-09-26T05:34:53.173Z,4.10
2018-09-26T05:39:55.708Z,4.00
2018-09-26T05:44:58.233Z,3.90
2018-09-26T05:50:00.791Z,3.90
2018-09-26T05:55:03.396Z,3.90
2018-09-26T06:00:05.983Z,3.80
2018-09-26T06:05:08.591Z,3.90
2018-09-26T06:10:11.136Z,4.00
2018-09-26T06:15:13.656Z,4.20
2018-09-26T06:20:16.172Z,4.30
2018-09-26T06:25:18.691Z,4.40
2018-09-26T06:30:21.245Z,4.60
2018-09-26T06:35:23.757Z,4.90
2018-09-26T06:40:27.005Z,5.20
2018-09-26T06:45:29.503Z,5.50
2018-09-26T06:50:32.068Z,5.80
2018-09-26T06:55:34.584Z,6.00
2018-09-26T07:00:37.750Z,6.40
2018-09-26T07:05:40.260Z,6.80
2018-09-26T07:10:42.796Z,7.00
2018-09-26T07:15:45.335Z,7.20
2018-09-26T07:20:47.864Z,7.40
2018-09-26T07:25:50.387Z,7.70
2018-09-26T07:30:52.899Z,8.10
2018-09-26T07:35:55.421Z,8.40
2018-09-26T07:40:57.936Z,8.90
2018-09-26T07:46:00.488Z,9.30
2018-09-26T07:51:03.057Z,9.40
2018-09-26T07:56:05.703Z,9.60
2018-09-26T08:01:08.247Z,10.10
2018-09-26T08:06:10.779Z,11.00
2018-09-26T08:11:13.340Z,12.20
2018-09-26T08:16:15.851Z,13.60
2018-09-26T08:21:19.098Z,14.70
2018-09-26T08:26:21.620Z,15.60
2018-09-26T08:31:24.167Z,16.10
2018-09-26T08:36:26.712Z,16.70
2018-09-26T08:41:29.249Z,16.90
2018-09-26T08:46:31.765Z,16.60
2018-09-26T08:51:34.291Z,18.10
2018-09-26T08:56:36.899Z,17.70
2018-09-26T09:01:44.862Z,18.80
2018-09-26T09:06:47.391Z,19.30
2018-09-26T09:11:49.919Z,19.50
2018-09-26T09:16:52.494Z,19.80
2018-09-26T09:21:55.060Z,19.50
2018-09-26T09:26:57.603Z,19.80
2018-09-26T09:32:00.379Z,21.70
2018-09-26T09:37:02.985Z,22.10
2018-09-26T09:42:05.787Z,22.50
2018-09-26T09:47:08.334Z,22.00
2018-09-26T09:52:10.868Z,21.60
2018-09-26T09:57:13.396Z,21.90
2018-09-26T10:02:16.023Z,22.00
2018-09-26T10:07:18.551Z,21.40
2018-09-26T10:12:21.063Z,22.60
2018-09-26T10:17:23.577Z,22.30
2018-09-26T10:22:26.040Z,21.60
2018-09-26T10:27:28.582Z,21.70
2018-09-26T10:32:31.066Z,22.90
2018-09-26T10:37:33.561Z,22.70
2018-09-26T10:42:38.864Z,22.70
2018-09-26T10:47:41.376Z,23.20
2018-09-26T10:52:43.867Z,23.50
2018-09-26T10:57:46.361Z,23.00
2018-09-26T11:02:48.868Z,23.80
2018-09-26T11:07:51.380Z,23.80
2018-09-26T11:12:53.887Z,24.00
2018-09-26T11:17:56.372Z,24.00
2018-09-26T11:22:58.852Z,25.80
2018-09-26T11:28:01.345Z,26.40
2018-09-26T11:33:03.845Z,27.00
2018-09-26T11:38:06.360Z,26.80
2018-09-26T11:43:09.696Z,25.00
2018-09-26T11:48:12.199Z,25.90
2018-09-26T11:53:14.674Z,27.10
2018-09-26T11:58:17.285Z,27.40
2018-09-26T12:03:19.724Z,29.20
2018-09-26T12:08:22.226Z,29.10
2018-09-26T12:13:24.772Z,28.10
2018-09-26T12:18:27.319Z,28.10
2018-09-26T12:23:29.744Z,29.90
2018-09-26T12:28:32.408Z,29.60
2018-09-26T12:33:34.911Z,30.70
2018-09-26T12:38:37.394Z,32.50
2018-09-26T12:43:39.977Z,32.50
2018-09-26T12:48:43.221Z,32.30
2018-09-26T12:53:45.803Z,32.40
2018-09-26T12:58:48.222Z,32.80
2018-09-26T13:03:50.687Z,34.00
2018-09-26T13:08:53.224Z,32.80
2018-09-26T13:13:55.744Z,33.50
2018-09-26T13:18:58.309Z,34.00
2018-09-26T13:24:00.756Z,34.90
2018-09-26T13:29:03.301Z,34.40
2018-09-26T13:34:05.835Z,35.70
2018-09-26T13:39:08.638Z,36.60
2018-09-26T13:44:11.122Z,36.00
2018-09-26T13:49:13.591Z,35.10
2018-09-26T13:54:16.130Z,36.30
2018-09-26T13:59:18.592Z,34.50
2018-09-26T14:04:21.161Z,35.40
2018-09-26T14:09:23.667Z,34.30
2018-09-26T14:14:26.261Z,34.50
2018-09-26T14:19:29.316Z,34.00
2018-09-26T14:24:31.837Z,34.50
2018-09-26T14:29:36.609Z,33.80
2018-09-26T14:34:39.992Z,35.10
2018-09-26T14:39:42.534Z,35.70
2018-09-26T14:44:45.104Z,33.60
2018-09-26T14:49:47.599Z,31.20
2018-09-26T14:54:50.104Z,31.00
2018-09-26T14:59:52.555Z,31.00
2018-09-26T15:04:55.033Z,30.30
2018-09-26T15:09:57.496Z,28.70
2018-09-26T15:14:59.972Z,27.00
2018-09-26T15:20:02.549Z,25.80
2018-09-26T15:25:05.113Z,25.30
2018-09-26T15:30:07.889Z,25.60
2018-09-26T15:35:10.399Z,25.00
2018-09-26T15:40:13.002Z,23.50
2018-09-26T15:45:16.374Z,23.10
2018-09-26T15:50:18.933Z,22.80
2018-09-26T15:55:21.394Z,22.40
2018-09-26T16:00:23.964Z,22.20
2018-09-26T16:05:26.408Z,22.70
2018-09-26T16:10:28.955Z,23.30
2018-09-26T16:15:31.495Z,23.00
2018-09-26T16:20:33.986Z,22.90
2018-09-26T16:25:36.637Z,23.40
2018-09-26T16:30:39.060Z,23.70
2018-09-26T16:35:41.599Z,23.70
2018-09-26T16:40:44.147Z,21.20
2018-09-26T16:45:46.666Z,19.70
2018-09-26T16:50:49.507Z,19.20
2018-09-26T16:55:52.105Z,18.10
2018-09-26T17:00:54.628Z,17.50
2018-09-26T17:05:57.187Z,16.90
2018-09-26T17:10:59.703Z,16.40
2018-09-26T17:16:02.235Z,15.80
2018-09-26T17:21:04.804Z,16.00
2018-09-26T17:26:07.923Z,14.90
2018-09-26T17:31:10.420Z,14.60
2018-09-26T17:36:12.986Z,14.10
2018-09-26T17:41:15.534Z,14.00
2018-09-26T17:46:18.152Z,13.80
2018-09-26T17:51:21.622Z,13.60
2018-09-26T17:56:25.446Z,13.40
2018-09-26T18:01:28.049Z,13.20
2018-09-26T18:06:31.409Z,13.20
2018-09-26T18:11:33.886Z,13.30
2018-09-26T18:16:37.108Z,13.30
2018-09-26T18:21:39.682Z,13.10
2018-09-26T18:26:42.238Z,13.00
2018-09-26T18:31:44.772Z,12.80
2018-09-26T18:36:47.297Z,12.70
2018-09-26T18:41:49.878Z,12.50
2018-09-26T18:46:52.491Z,12.30
2018-09-26T18:51:55.032Z,12.10
2018-09-26T18:56:57.568Z,12.10
2018-09-26T19:02:00.089Z,11.80
2018-09-26T19:07:02.766Z,11.80
2018-09-26T19:12:05.324Z,11.60
2018-09-26T19:17:07.860Z,11.50
2018-09-26T19:22:10.391Z,11.40
2018-09-26T19:27:13.002Z,11.40
2018-09-26T19:32:15.512Z,11.20
2018-09-26T19:37:18.129Z,11.00
2018-09-26T19:42:20.713Z,10.80
2018-09-26T19:47:23.272Z,10.60
2018-09-26T19:52:26.055Z,10.50
2018-09-26T19:57:28.559Z,11.20
2018-09-26T20:02:31.183Z,10.20
2018-09-26T20:07:33.755Z,10.20
2018-09-26T20:12:36.298Z,10.70
2018-09-26T20:17:38.847Z,10.00
2018-09-26T20:22:41.353Z,10.00
2018-09-26T20:27:43.922Z,10.10
2018-09-26T20:32:46.442Z,10.20
2018-09-26T20:37:48.964Z,10.20
2018-09-26T20:42:51.677Z,10.10
2018-09-26T20:47:54.180Z,10.00
2018-09-26T20:52:56.691Z,10.00
2018-09-26T20:57:59.227Z,9.70
2018-09-26T21:03:01.840Z,9.50
2018-09-26T21:08:04.361Z,9.30
2018-09-26T21:13:07.069Z,9.00
2018-09-26T21:18:09.565Z,8.80
2018-09-26T21:23:12.110Z,8.60
2018-09-26T21:28:14.580Z,8.70
2018-09-26T21:33:17.093Z,9.00
2018-09-26T21:38:19.609Z,9.10
2018-09-26T21:43:22.090Z,9.10
2018-09-26T21:48:24.592Z,9.10
2018-09-26T21:53:27.138Z,9.10
2018-09-26T21:58:29.627Z,8.70
2018-09-26T22:03:32.839Z,8.70
2018-09-26T22:08:35.532Z,8.80
2018-09-26T22:13:38.158Z,8.80
2018-09-26T22:18:40.776Z,8.70
2018-09-26T22:23:43.422Z,8.60
2018-09-26T22:28:46.028Z,8.40
2018-09-26T22:33:48.641Z,8.30
2018-09-26T22:38:51.288Z,8.10
2018-09-26T22:43:53.956Z,7.90
2018-09-26T22:48:56.665Z,7.90
2018-09-26T22:53:59.295Z,7.80
2018-09-26T22:59:01.910Z,7.70
2018-09-26T23:04:04.528Z,7.60
2018-09-26T23:09:08.543Z,7.50
2018-09-26T23:14:11.190Z,7.40
2018-09-26T23:19:13.787Z,7.40
2018-09-26T23:24:16.411Z,7.20
2018-09-26T23:29:19.015Z,7.10
2018-09-26T23:34:21.629Z,6.80
2018-09-26T23:44:26.733Z,6.70
2018-09-26T23:49:29.386Z,6.70
2018-09-26T23:54:32.062Z,6.80
2018-09-26T23:59:34.721Z,6.80
